Time;durP1;ratioP1;P1;durP2;ratioP2;P2;SDS_P1;SDS_P2;PMS_P1;PMS_P2;Temp;Humidity;BMP_temperature;BMP_pressure;BME280_temperature;BME280_humidity;BME280_pressure;Samples;Min_cycle;Max_cycle;Signal;HPM_P1;HPM_P2
2021/06/05 00:02:02;;;;;;;5.22;2.75;;;;;;;;;;143739;685;46012;-89
2021/06/05 00:04:28;;;;;;;8.43;2.87;;;;;;;;;;143741;654;46020;-88
2021/06/05 00:06:55;;;;;;;8.70;3.25;;;;;;;;;;143739;669;46013;-88
2021/06/05 00:09:23;;;;;;;4.43;2.42;;;;;;;;;;143739;652;46023;-89
2021/06/05 00:11:50;;;;;;;4.70;2.78;;;;;;;;;;143741;606;45020;-89
2021/06/05 00:14:33;;;;;;;4.32;2.90;;;;;;;;;;143740;597;46021;-90
2021/06/05 00:17:34;;;;;;;5.65;3.28;;;;;;;;;;143744;569;45020;-90
2021/06/05 00:20:13;;;;;;;4.25;2.60;;;;;;;;;;143743;593;45024;-90
2021/06/05 00:22:41;;;;;;;7.32;3.40;;;;;;;;;;143743;588;45021;-88
2021/06/05 00:25:12;;;;;;;4.28;3.62;;;;;;;;;;143735;615;46014;-88
2021/06/05 00:27:40;;;;;;;6.40;2.83;;;;;;;;;;143740;655;46012;-87
2021/06/05 00:30:08;;;;;;;2.95;2.53;;;;;;;;;;143740;575;46021;-89
2021/06/05 00:32:35;;;;;;;7.00;2.47;;;;;;;;;;143737;576;46012;-88
2021/06/05 00:35:02;;;;;;;5.82;2.53;;;;;;;;;;143737;569;47020;-88
2021/06/05 00:37:30;;;;;;;5.40;2.50;;;;;;;;;;143741;649;46012;-89
2021/06/05 00:39:56;;;;;;;8.68;2.80;;;;;;;;;;143738;601;47023;-88
2021/06/05 00:42:24;;;;;;;4.10;2.37;;;;;;;;;;143738;589;46012;-90
2021/06/05 00:44:51;;;;;;;10.43;2.80;;;;;;;;;;143742;665;45043;-88
2021/06/05 00:47:18;;;;;;;3.05;2.50;;;;;;;;;;143739;626;46020;-88
2021/06/05 00:49:45;;;;;;;4.72;2.83;;;;;;;;;;143739;598;46022;-88
2021/06/05 00:52:16;;;;;;;16.00;3.62;;;;;;;;;;143735;634;46013;-88
2021/06/05 00:54:43;;;;;;;4.15;3.05;;;;;;;;;;143739;578;46020;-88
2021/06/05 00:57:10;;;;;;;6.85;3.55;;;;;;;;;;143740;585;46012;-88
2021/06/05 00:59:36;;;;;;;6.45;2.90;;;;;;;;;;143737;621;46021;-90
2021/06/05 01:02:04;;;;;;;5.25;3.10;;;;;;;;;;143736;678;46012;-87
2021/06/05 01:04:30;;;;;;;8.07;3.40;;;;;;;;;;143740;624;46020;-88
2021/06/05 01:07:08;;;;;;;5.22;3.42;;;;;;;;;;143738;599;46013;-89
2021/06/05 01:09:56;;;;;;;12.75;3.03;;;;;;;;;;143739;600;46022;-89
2021/06/05 01:12:48;;;;;;;6.82;3.35;;;;;;;;;;143739;636;46012;-86
2021/06/05 01:15:27;;;;;;;6.20;2.70;;;;;;;;;;143737;581;46021;-87
2021/06/05 01:18:10;;;;;;;3.90;2.97;;;;;;;;;;143743;591;45020;-89
2021/06/05 01:21:08;;;;;;;4.05;3.15;;;;;;;;;;143743;649;45022;-88
2021/06/05 01:24:02;;;;;;;7.37;3.17;;;;;;;;;;143736;687;46012;-87
2021/06/05 01:26:33;;;;;;;4.70;3.17;;;;;;;;;;143741;570;46020;-89
2021/06/05 01:29:19;;;;;;;6.03;3.12;;;;;;;;;;143741;669;46013;-86
2021/06/05 01:32:17;;;;;;;5.00;2.97;;;;;;;;;;143742;645;46023;-89
2021/06/05 01:35:55;;;;;;;;;;;;;;;;;;;;;
2021/06/05 01:38:53;;;;;;;9.20;3.08;;;;;;;;;;143742;621;45023;-89
2021/06/05 01:41:38;;;;;;;8.23;3.03;;;;;;;;;;143744;588;45020;-87
2021/06/05 01:44:19;;;;;;;4.62;3.67;;;;;;;;;;143742;597;46014;-88
2021/06/05 01:46:48;;;;;;;6.78;4.62;;;;;;;;;;143742;615;46020;-89
2021/06/05 01:49:17;;;;;;;10.55;4.32;;;;;;;;;;143740;602;46020;-88
2021/06/05 01:51:48;;;;;;;6.55;3.78;;;;;;;;;;143736;585;46044;-86
2021/06/05 01:54:33;;;;;;;9.85;2.90;;;;;;;;;;143733;605;46022;-87
2021/06/05 01:57:04;;;;;;;5.05;2.87;;;;;;;;;;143733;593;46020;-87
2021/06/05 01:59:32;;;;;;;6.57;3.10;;;;;;;;;;143734;671;46021;-87
2021/06/05 02:01:59;;;;;;;5.07;2.85;;;;;;;;;;143735;692;46020;-88
2021/06/05 02:04:43;;;;;;;6.85;2.60;;;;;;;;;;143735;569;47022;-89
2021/06/05 02:07:10;;;;;;;4.97;3.45;;;;;;;;;;143739;565;45921;-87
2021/06/05 02:09:50;;;;;;;6.75;2.72;;;;;;;;;;143731;564;46020;-88
2021/06/05 02:12:36;;;;;;;2.78;2.40;;;;;;;;;;143736;590;46018;-86
2021/06/05 02:15:17;;;;;;;3.92;2.67;;;;;;;;;;143732;584;46023;-88
2021/06/05 02:17:46;;;;;;;4.05;2.60;;;;;;;;;;143731;645;46012;-88
2021/06/05 02:20:22;;;;;;;4.97;3.33;;;;;;;;;;143735;586;46021;-87
2021/06/05 02:22:51;;;;;;;7.10;2.80;;;;;;;;;;143736;724;46012;-88
2021/06/05 02:25:26;;;;;;;5.15;2.60;;;;;;;;;;143732;601;46022;-89
2021/06/05 02:27:57;;;;;;;13.13;3.75;;;;;;;;;;143732;598;46013;-88
2021/06/05 02:30:25;;;;;;;6.95;3.45;;;;;;;;;;143737;655;45050;-90
2021/06/05 02:32:53;;;;;;;4.87;2.95;;;;;;;;;;143735;596;46012;-86
2021/06/05 02:35:37;;;;;;;4.53;3.25;;;;;;;;;;143735;612;46021;-88
2021/06/05 02:38:05;;;;;;;3.60;2.67;;;;;;;;;;143735;565;46012;-87
2021/06/05 02:40:35;;;;;;;12.98;3.37;;;;;;;;;;143733;678;46020;-87
2021/06/05 02:43:08;;;;;;;8.15;3.55;;;;;;;;;;143734;802;46012;-88
2021/06/05 02:45:44;;;;;;;10.05;3.83;;;;;;;;;;143733;777;47023;-89
2021/06/05 02:48:11;;;;;;;7.22;2.80;;;;;;;;;;143732;564;46012;-87
2021/06/05 02:50:44;;;;;;;8.90;3.20;;;;;;;;;;143738;807;46021;-87
2021/06/05 02:53:11;;;;;;;8.27;2.80;;;;;;;;;;143741;616;46012;-88
2021/06/05 02:55:38;;;;;;;5.78;4.03;;;;;;;;;;143739;595;47022;-88
2021/06/05 02:58:08;;;;;;;5.43;3.25;;;;;;;;;;143738;571;46013;-88
2021/06/05 03:00:40;;;;;;;4.95;2.92;;;;;;;;;;143740;572;46020;-89
2021/06/05 03:03:10;;;;;;;3.80;2.70;;;;;;;;;;143740;727;46012;-86
2021/06/05 03:05:39;;;;;;;5.87;3.40;;;;;;;;;;143739;803;46022;-87
2021/06/05 03:08:19;;;;;;;6.70;2.95;;;;;;;;;;143738;564;46012;-88
2021/06/05 03:10:46;;;;;;;3.33;2.95;;;;;;;;;;143741;569;46020;-88
2021/06/05 03:13:14;;;;;;;6.93;3.05;;;;;;;;;;143741;609;46013;-89
2021/06/05 03:15:41;;;;;;;6.78;3.83;;;;;;;;;;143740;579;46023;-88
2021/06/05 03:18:10;;;;;;;9.60;3.33;;;;;;;;;;143740;573;46012;-88
2021/06/05 03:20:40;;;;;;;4.28;3.12;;;;;;;;;;143739;569;46021;-88
2021/06/05 03:23:10;;;;;;;11.82;3.95;;;;;;;;;;143739;587;46012;-87
2021/06/05 03:25:39;;;;;;;6.07;3.58;;;;;;;;;;143739;604;46022;-87
2021/06/05 03:28:07;;;;;;;6.05;2.87;;;;;;;;;;143737;614;46012;-87
2021/06/05 03:30:34;;;;;;;9.63;3.42;;;;;;;;;;143741;590;46021;-87
2021/06/05 03:33:01;;;;;;;7.80;3.15;;;;;;;;;;143742;569;46020;-87
2021/06/05 03:35:31;;;;;;;5.03;3.22;;;;;;;;;;143740;666;46022;-87
2021/06/05 03:37:58;;;;;;;5.03;2.87;;;;;;;;;;143737;610;46012;-89
2021/06/05 03:40:28;;;;;;;5.70;3.25;;;;;;;;;;143739;564;47020;-87
2021/06/05 03:42:55;;;;;;;6.93;3.30;;;;;;;;;;143739;683;46013;-87
2021/06/05 03:45:22;;;;;;;8.57;3.17;;;;;;;;;;143741;642;47023;-88
2021/06/05 03:47:49;;;;;;;7.15;3.25;;;;;;;;;;143738;687;46012;-87
2021/06/05 03:50:19;;;;;;;8.95;3.55;;;;;;;;;;143737;564;46021;-89
2021/06/05 03:52:46;;;;;;;8.35;3.40;;;;;;;;;;143739;606;46012;-87
2021/06/05 03:55:16;;;;;;;12.18;3.10;;;;;;;;;;143740;644;46016;-87
2021/06/05 03:57:43;;;;;;;13.73;3.40;;;;;;;;;;143736;574;46921;-87
2021/06/05 04:00:21;;;;;;;4.95;3.30;;;;;;;;;;143741;639;46020;-87
2021/06/05 04:02:48;;;;;;;8.88;3.42;;;;;;;;;;143740;612;46012;-89
2021/06/05 04:05:15;;;;;;;7.25;3.78;;;;;;;;;;143733;638;46015;-87
2021/06/05 04:07:43;;;;;;;6.70;3.17;;;;;;;;;;143738;624;46012;-87
2021/06/05 04:10:12;;;;;;;7.00;3.47;;;;;;;;;;143737;622;46020;-88
2021/06/05 04:12:39;;;;;;;12.10;3.97;;;;;;;;;;143741;607;46013;-89
2021/06/05 04:15:08;;;;;;;7.72;2.97;;;;;;;;;;143743;601;46020;-90
2021/06/05 04:17:36;;;;;;;7.37;3.42;;;;;;;;;;143738;619;46014;-88
2021/06/05 04:20:05;;;;;;;8.93;4.10;;;;;;;;;;143740;565;46021;-88
2021/06/05 04:22:32;;;;;;;13.10;3.87;;;;;;;;;;143740;675;46012;-88
2021/06/05 04:25:00;;;;;;;12.60;3.47;;;;;;;;;;143741;577;46020;-87
2021/06/05 04:27:27;;;;;;;9.43;4.60;;;;;;;;;;143741;574;46012;-90
2021/06/05 04:29:54;;;;;;;5.28;3.30;;;;;;;;;;143737;614;46014;-87
2021/06/05 04:32:22;;;;;;;9.15;3.37;;;;;;;;;;143741;600;46012;-88
2021/06/05 04:34:50;;;;;;;4.80;3.17;;;;;;;;;;143740;582;46021;-88
2021/06/05 04:37:17;;;;;;;7.43;4.37;;;;;;;;;;143738;582;46012;-88
2021/06/05 04:39:44;;;;;;;11.25;4.50;;;;;;;;;;143740;723;46020;-88
2021/06/05 04:42:11;;;;;;;5.43;3.45;;;;;;;;;;143739;612;46013;-87
2021/06/05 04:44:37;;;;;;;12.98;4.20;;;;;;;;;;143743;673;46020;-89
2021/06/05 04:47:04;;;;;;;7.97;3.40;;;;;;;;;;143741;596;45920;-90
2021/06/05 04:49:34;;;;;;;9.80;4.22;;;;;;;;;;143742;619;46021;-88
2021/06/05 04:52:00;;;;;;;7.28;4.12;;;;;;;;;;143742;692;46012;-88
2021/06/05 04:54:27;;;;;;;13.50;4.20;;;;;;;;;;143742;565;46020;-87
2021/06/05 04:56:54;;;;;;;8.10;3.65;;;;;;;;;;143741;679;46012;-88
2021/06/05 04:59:21;;;;;;;8.93;4.00;;;;;;;;;;143740;583;46020;-88
2021/06/05 05:01:48;;;;;;;9.70;4.55;;;;;;;;;;143742;564;46012;-89
2021/06/05 05:04:15;;;;;;;5.68;3.80;;;;;;;;;;143739;577;46014;-89
2021/06/05 05:06:44;;;;;;;7.60;3.33;;;;;;;;;;143739;578;46012;-89
2021/06/05 05:09:14;;;;;;;3.87;2.92;;;;;;;;;;143741;573;46020;-90
2021/06/05 05:11:42;;;;;;;10.73;3.22;;;;;;;;;;143742;569;46020;-89
2021/06/05 05:14:11;;;;;;;7.50;3.15;;;;;;;;;;143744;611;46023;-90
2021/06/05 05:16:39;;;;;;;8.27;3.37;;;;;;;;;;143740;608;46012;-88
2021/06/05 05:19:06;;;;;;;10.25;4.25;;;;;;;;;;143740;566;47020;-89
2021/06/05 05:21:34;;;;;;;8.68;3.55;;;;;;;;;;143742;653;48012;-88
2021/06/05 05:24:01;;;;;;;10.07;3.12;;;;;;;;;;143739;616;47022;-89
2021/06/05 05:26:28;;;;;;;11.27;3.30;;;;;;;;;;143742;631;45921;-89
2021/06/05 05:28:55;;;;;;;11.85;3.45;;;;;;;;;;143739;570;46015;-88
2021/06/05 05:31:26;;;;;;;6.22;3.47;;;;;;;;;;143741;589;46012;-86
2021/06/05 05:33:53;;;;;;;12.45;3.40;;;;;;;;;;143740;585;46022;-88
2021/06/05 05:36:31;;;;;;;4.85;2.75;;;;;;;;;;143739;604;46012;-86
2021/06/05 05:39:09;;;;;;;6.37;2.80;;;;;;;;;;143742;631;46020;-88
2021/06/05 05:41:37;;;;;;;10.02;3.62;;;;;;;;;;143742;571;46012;-87
2021/06/05 05:44:05;;;;;;;16.25;4.37;;;;;;;;;;143742;578;45023;-87
2021/06/05 05:46:32;;;;;;;13.98;4.22;;;;;;;;;;143741;605;46020;-88
2021/06/05 05:49:00;;;;;;;12.68;4.85;;;;;;;;;;143740;582;46020;-87
2021/06/05 05:51:26;;;;;;;18.87;3.72;;;;;;;;;;143740;575;46012;-86
2021/06/05 05:53:54;;;;;;;12.43;3.45;;;;;;;;;;143740;579;47020;-87
2021/06/05 05:56:33;;;;;;;15.73;3.67;;;;;;;;;;143742;583;46920;-87
2021/06/05 05:59:14;;;;;;;7.82;3.25;;;;;;;;;;143743;628;46014;-88
2021/06/05 06:02:00;;;;;;;4.82;3.10;;;;;;;;;;143744;636;45020;-89
2021/06/05 06:04:31;;;;;;;5.07;3.10;;;;;;;;;;143742;579;46021;-86
2021/06/05 06:06:58;;;;;;;10.35;2.85;;;;;;;;;;143736;581;46020;-86
2021/06/05 06:09:35;;;;;;;;;;;;;;;;;;;;;
2021/06/05 06:12:08;;;;;;;8.20;3.10;;;;;;;;;;143743;593;46021;-87
2021/06/05 06:14:35;;;;;;;3.53;2.20;;;;;;;;;;143743;595;46020;-86
2021/06/05 06:17:02;;;;;;;5.35;2.67;;;;;;;;;;143739;611;46012;-87
2021/06/05 06:19:29;;;;;;;6.82;2.85;;;;;;;;;;143742;583;46021;-86
2021/06/05 06:21:56;;;;;;;6.43;5.60;;;;;;;;;;143741;597;46012;-85
2021/06/05 06:24:24;;;;;;;10.43;3.50;;;;;;;;;;143743;587;46022;-86
2021/06/05 06:26:52;;;;;;;5.12;3.20;;;;;;;;;;143739;579;46013;-87
2021/06/05 06:29:26;;;;;;;6.53;3.45;;;;;;;;;;143744;585;46014;-90
2021/06/05 06:31:53;;;;;;;6.72;2.47;;;;;;;;;;143740;565;46012;-88
2021/06/05 06:34:22;;;;;;;4.85;2.83;;;;;;;;;;143741;581;46022;-86
2021/06/05 06:36:50;;;;;;;7.00;2.33;;;;;;;;;;143740;573;46012;-87
2021/06/05 06:39:17;;;;;;;4.53;2.42;;;;;;;;;;143742;566;46020;-86
2021/06/05 06:41:45;;;;;;;5.90;2.60;;;;;;;;;;143742;642;46013;-86
2021/06/05 06:44:15;;;;;;;4.85;2.67;;;;;;;;;;143740;587;46023;-86
2021/06/05 06:46:44;;;;;;;3.72;2.00;;;;;;;;;;143740;617;46012;-87
2021/06/05 06:49:14;;;;;;;4.70;2.40;;;;;;;;;;143742;575;46021;-87
2021/06/05 06:51:41;;;;;;;2.97;2.45;;;;;;;;;;143741;636;46022;-86
2021/06/05 06:54:11;;;;;;;4.10;2.83;;;;;;;;;;143741;601;46022;-90
2021/06/05 06:56:39;;;;;;;7.25;2.22;;;;;;;;;;143740;572;46013;-86
2021/06/05 06:59:12;;;;;;;4.22;2.30;;;;;;;;;;143742;588;46020;-86
2021/06/05 07:01:38;;;;;;;3.15;2.05;;;;;;;;;;143742;574;47020;-90
2021/06/05 07:04:05;;;;;;;7.53;2.20;;;;;;;;;;143743;565;46021;-86
2021/06/05 07:06:33;;;;;;;11.77;2.72;;;;;;;;;;143740;645;46012;-88
2021/06/05 07:09:00;;;;;;;5.80;2.17;;;;;;;;;;143742;589;46020;-86
2021/06/05 07:11:33;;;;;;;2.67;2.05;;;;;;;;;;143740;587;46029;-86
2021/06/05 07:14:00;;;;;;;;;;;;;;;;;;143749;961;46020;-88
2021/06/05 07:16:28;;;;;;;5.57;2.33;;;;;;;;;;143751;581;46010;-88
2021/06/05 07:18:55;;;;;;;4.60;2.40;;;;;;;;;;143743;594;46021;-88
2021/06/05 07:21:22;;;;;;;6.00;2.50;;;;;;;;;;143739;610;46010;-87
2021/06/05 07:23:49;;;;;;;10.77;2.22;;;;;;;;;;143743;579;46020;-87
2021/06/05 07:26:28;;;;;;;3.53;1.87;;;;;;;;;;143741;592;46010;-89
2021/06/05 07:28:57;;;;;;;4.80;1.85;;;;;;;;;;143744;588;46021;-90
2021/06/05 07:31:54;;;;;;;2.95;2.40;;;;;;;;;;143742;569;46020;-88
2021/06/05 07:34:26;;;;;;;4.62;2.67;;;;;;;;;;143743;581;46021;-89
2021/06/05 07:36:57;;;;;;;10.43;2.60;;;;;;;;;;143742;601;46010;-89
2021/06/05 07:39:28;;;;;;;2.78;2.03;;;;;;;;;;143740;567;46012;-87
2021/06/05 07:42:00;;;;;;;9.80;2.00;;;;;;;;;;143741;641;46010;-90
2021/06/05 07:44:28;;;;;;;5.57;2.72;;;;;;;;;;143743;633;46020;-89
2021/06/05 07:46:58;;;;;;;6.72;2.67;;;;;;;;;;143742;580;46010;-88
2021/06/05 07:49:26;;;;;;;3.65;2.70;;;;;;;;;;143743;585;46021;-88
2021/06/05 07:51:53;;;;;;;6.30;2.35;;;;;;;;;;143744;614;46020;-87
2021/06/05 07:54:20;;;;;;;8.30;2.75;;;;;;;;;;143742;578;46022;-88
2021/06/05 07:56:51;;;;;;;6.50;2.40;;;;;;;;;;143741;587;46010;-90
2021/06/05 07:59:22;;;;;;;3.25;2.33;;;;;;;;;;143743;569;46020;-88
2021/06/05 08:01:50;;;;;;;9.02;2.87;;;;;;;;;;143744;605;46010;-89
2021/06/05 08:04:17;;;;;;;7.40;2.80;;;;;;;;;;143743;616;46022;-88
2021/06/05 08:06:45;;;;;;;3.92;2.40;;;;;;;;;;143739;579;46010;-86
2021/06/05 08:09:12;;;;;;;4.72;2.50;;;;;;;;;;143743;598;45020;-88
2021/06/05 08:11:39;;;;;;;5.37;2.15;;;;;;;;;;143740;566;46011;-87
2021/06/05 08:14:10;;;;;;;7.93;3.75;;;;;;;;;;143741;654;46022;-87
2021/06/05 08:16:37;;;;;;;4.78;2.28;;;;;;;;;;143739;580;46010;-88
2021/06/05 08:19:06;;;;;;;5.35;3.00;;;;;;;;;;143738;636;46013;-88
2021/06/05 08:21:32;;;;;;;5.10;2.35;;;;;;;;;;143745;576;45020;-89
2021/06/05 08:23:59;;;;;;;4.03;2.37;;;;;;;;;;143742;566;46022;-88
2021/06/05 08:26:26;;;;;;;9.82;2.58;;;;;;;;;;143738;611;46010;-86
2021/06/05 08:28:53;;;;;;;5.50;2.53;;;;;;;;;;143742;588;46020;-88
2021/06/05 08:31:22;;;;;;;6.57;2.35;;;;;;;;;;143744;597;46010;-87
2021/06/05 08:33:48;;;;;;;2.65;2.12;;;;;;;;;;143740;588;47915;-88
2021/06/05 08:36:19;;;;;;;4.25;2.03;;;;;;;;;;143742;651;46010;-88
2021/06/05 08:38:46;;;;;;;4.93;2.37;;;;;;;;;;143745;582;46020;-87
2021/06/05 08:42:00;;;;;;;5.45;2.90;;;;;;;;;;143741;589;46011;-88
2021/06/05 08:44:36;;;;;;;4.18;2.17;;;;;;;;;;143743;569;46020;-88
2021/06/05 08:47:13;;;;;;;6.80;2.35;;;;;;;;;;143741;610;46010;-88
2021/06/05 08:49:43;;;;;;;6.85;2.50;;;;;;;;;;143742;635;46021;-87
2021/06/05 08:52:46;;;;;;;15.43;2.45;;;;;;;;;;143744;597;46010;-88
2021/06/05 08:55:45;;;;;;;6.95;2.72;;;;;;;;;;143740;598;46024;-87
2021/06/05 08:58:32;;;;;;;5.53;2.70;;;;;;;;;;143738;576;46921;-87
2021/06/05 09:01:13;;;;;;;4.70;2.42;;;;;;;;;;143742;569;46020;-88
2021/06/05 09:03:41;;;;;;;3.80;2.37;;;;;;;;;;143741;569;46011;-87
2021/06/05 09:06:16;;;;;;;5.97;2.20;;;;;;;;;;143737;607;46012;-88
2021/06/05 09:08:43;;;;;;;6.60;2.87;;;;;;;;;;143738;571;46010;-86
2021/06/05 09:11:11;;;;;;;5.62;3.00;;;;;;;;;;143741;655;46020;-89
2021/06/05 09:13:39;;;;;;;5.90;2.03;;;;;;;;;;143738;583;48010;-87
2021/06/05 09:16:26;;;;;;;7.40;2.40;;;;;;;;;;143740;659;46022;-90
2021/06/05 09:19:20;;;;;;;5.18;2.28;;;;;;;;;;143738;570;46011;-89
2021/06/05 09:22:13;;;;;;;3.97;2.50;;;;;;;;;;143742;576;46018;-88
2021/06/05 09:24:48;;;;;;;5.45;2.08;;;;;;;;;;143739;624;46012;-88
2021/06/05 09:27:25;;;;;;;5.85;2.17;;;;;;;;;;143740;629;46023;-87
2021/06/05 09:30:02;;;;;;;3.42;2.30;;;;;;;;;;143736;611;46012;-88
2021/06/05 09:32:35;;;;;;;7.82;2.62;;;;;;;;;;143739;582;46020;-89
2021/06/05 09:35:29;;;;;;;3.35;2.55;;;;;;;;;;143739;656;46010;-87
2021/06/05 09:38:46;;;;;;;5.68;2.47;;;;;;;;;;143738;581;46012;-87
2021/06/05 09:41:49;;;;;;;13.02;2.83;;;;;;;;;;143737;620;46010;-88
2021/06/05 09:44:28;;;;;;;3.30;2.50;;;;;;;;;;143740;569;46020;-86
2021/06/05 09:47:06;;;;;;;4.53;2.40;;;;;;;;;;143740;599;46011;-88
2021/06/05 09:49:40;;;;;;;8.68;2.25;;;;;;;;;;143740;564;46023;-88
2021/06/05 09:52:34;;;;;;;6.12;2.50;;;;;;;;;;143739;619;46013;-87
2021/06/05 09:55:27;;;;;;;6.95;2.85;;;;;;;;;;143740;616;46021;-87
2021/06/05 09:57:55;;;;;;;5.07;2.95;;;;;;;;;;143737;593;46012;-87
2021/06/05 10:00:33;;;;;;;5.10;2.55;;;;;;;;;;143738;647;46020;-87
2021/06/05 10:03:34;;;;;;;4.47;2.60;;;;;;;;;;143737;639;46011;-88
2021/06/05 10:06:16;;;;;;;6.78;2.70;;;;;;;;;;143740;564;46012;-89
2021/06/05 10:08:43;;;;;;;5.82;2.17;;;;;;;;;;143741;582;46010;-87
2021/06/05 10:11:41;;;;;;;6.47;2.70;;;;;;;;;;143740;597;46021;-88
2021/06/05 10:14:16;;;;;;;4.25;2.65;;;;;;;;;;143737;651;46010;-88
2021/06/05 10:16:51;;;;;;;2.40;1.75;;;;;;;;;;143738;585;46020;-87
2021/06/05 10:19:30;;;;;;;5.47;2.45;;;;;;;;;;143741;608;46013;-89
2021/06/05 10:21:58;;;;;;;4.95;2.55;;;;;;;;;;143740;564;46020;-90
2021/06/05 10:24:54;;;;;;;6.97;2.20;;;;;;;;;;143736;626;46010;-87
2021/06/05 10:27:27;;;;;;;2.72;2.33;;;;;;;;;;143740;635;46020;-87
2021/06/05 10:29:56;;;;;;;;;;;;;;;;;;143747;980;46020;-87
2021/06/05 10:32:30;;;;;;;4.60;2.75;;;;;;;;;;143750;622;46014;-88
2021/06/05 10:35:07;;;;;;;8.70;2.60;;;;;;;;;;143737;603;46012;-89
2021/06/05 10:37:37;;;;;;;3.58;2.45;;;;;;;;;;143740;564;46020;-87
2021/06/05 10:40:07;;;;;;;13.38;3.12;;;;;;;;;;143739;599;46013;-87
2021/06/05 10:42:47;;;;;;;5.93;3.15;;;;;;;;;;143738;639;46014;-87
2021/06/05 10:45:44;;;;;;;5.45;2.83;;;;;;;;;;143737;578;46012;-88
2021/06/05 10:48:32;;;;;;;6.32;2.62;;;;;;;;;;143740;583;46021;-88
2021/06/05 10:51:12;;;;;;;5.85;3.10;;;;;;;;;;143741;638;46012;-89
2021/06/05 10:54:14;;;;;;;4.68;2.85;;;;;;;;;;143740;581;46022;-88
2021/06/05 10:57:00;;;;;;;8.63;2.78;;;;;;;;;;143742;613;45049;-87
2021/06/05 11:00:00;;;;;;;3.78;2.10;;;;;;;;;;143743;572;46020;-89
2021/06/05 11:02:58;;;;;;;5.78;2.40;;;;;;;;;;143741;617;46012;-87
2021/06/05 11:05:55;;;;;;;7.07;2.80;;;;;;;;;;143741;590;46025;-88
2021/06/05 11:08:51;;;;;;;8.55;2.42;;;;;;;;;;143744;635;46012;-89
2021/06/05 11:11:45;;;;;;;3.17;1.75;;;;;;;;;;143743;598;46021;-87
2021/06/05 11:14:49;;;;;;;2.70;2.12;;;;;;;;;;143745;587;46018;-87
2021/06/05 11:18:06;;;;;;;6.32;2.50;;;;;;;;;;143744;625;46022;-87
2021/06/05 11:20:42;;;;;;;5.78;2.00;;;;;;;;;;143737;664;46012;-88
2021/06/05 11:23:15;;;;;;;5.03;2.08;;;;;;;;;;143741;581;46020;-89
2021/06/05 11:25:50;;;;;;;7.70;2.55;;;;;;;;;;143739;585;46013;-87
2021/06/05 11:28:40;;;;;;;3.75;2.25;;;;;;;;;;143740;606;46052;-87
2021/06/05 11:32:07;;;;;;;5.70;2.28;;;;;;;;;;143742;579;45020;-83
2021/06/05 11:35:07;;;;;;;6.22;2.15;;;;;;;;;;143744;594;45021;-88
2021/06/05 11:38:10;;;;;;;3.72;2.15;;;;;;;;;;143746;566;45022;-83
2021/06/05 11:41:37;;;;;;;5.10;2.00;;;;;;;;;;143744;574;45023;-88
2021/06/05 11:44:33;;;;;;;3.60;2.25;;;;;;;;;;143749;597;45020;-83
2021/06/05 11:47:47;;;;;;;4.03;2.13;;;;;;;;;;143745;594;45021;-88
2021/06/05 11:50:44;;;;;;;9.95;3.45;;;;;;;;;;143745;917;45020;-88
2021/06/05 11:53:39;;;;;;;7.65;2.50;;;;;;;;;;143743;581;45022;-83
2021/06/05 11:56:09;;;;;;;9.02;2.47;;;;;;;;;;143743;979;45919;-88
2021/06/05 11:58:39;;;;;;;7.37;2.03;;;;;;;;;;143743;982;45020;-90
2021/06/05 12:01:27;;;;;;;7.50;2.85;;;;;;;;;;143743;824;46020;-86
2021/06/05 12:04:10;;;;;;;4.45;2.50;;;;;;;;;;143741;973;46023;-87
2021/06/05 12:06:45;;;;;;;9.00;4.30;;;;;;;;;;143737;565;45918;-88
2021/06/05 12:09:51;;;;;;;7.57;2.45;;;;;;;;;;143739;570;47021;-88
2021/06/05 12:12:55;;;;;;;8.13;2.30;;;;;;;;;;143742;581;46020;-89
2021/06/05 12:15:41;;;;;;;7.03;2.95;;;;;;;;;;143740;582;46022;-85
2021/06/05 12:18:26;;;;;;;5.18;2.62;;;;;;;;;;143739;570;46013;-88
2021/06/05 12:20:59;;;;;;;6.07;2.50;;;;;;;;;;143740;564;46014;-88
2021/06/05 12:23:41;;;;;;;4.65;2.40;;;;;;;;;;143740;598;46012;-88
2021/06/05 12:26:14;;;;;;;5.73;2.20;;;;;;;;;;143742;936;46023;-87
2021/06/05 12:28:47;;;;;;;6.47;2.20;;;;;;;;;;143737;566;46012;-87
2021/06/05 12:31:32;;;;;;;4.12;2.15;;;;;;;;;;143741;569;46021;-87
2021/06/05 12:34:07;;;;;;;7.05;1.90;;;;;;;;;;143741;595;46012;-86
2021/06/05 12:36:46;;;;;;;3.70;2.08;;;;;;;;;;143744;594;46020;-87
2021/06/05 12:39:42;;;;;;;2.78;2.00;;;;;;;;;;143743;571;46012;-87
2021/06/05 12:42:11;;;;;;;4.03;2.33;;;;;;;;;;143739;729;46020;-86
2021/06/05 12:44:41;;;;;;;5.72;2.28;;;;;;;;;;143737;564;46012;-86
2021/06/05 12:47:16;;;;;;;5.05;2.35;;;;;;;;;;143741;585;46021;-86
2021/06/05 12:49:44;;;;;;;5.75;2.60;;;;;;;;;;143737;596;46012;-86
2021/06/05 12:52:27;;;;;;;9.73;2.25;;;;;;;;;;143740;575;46014;-85
2021/06/05 12:55:19;;;;;;;7.12;2.33;;;;;;;;;;143740;596;46013;-85
2021/06/05 12:57:56;;;;;;;7.30;2.33;;;;;;;;;;143742;564;46022;-86
2021/06/05 13:00:48;;;;;;;4.87;2.45;;;;;;;;;;143738;585;46012;-84
2021/06/05 13:03:25;;;;;;;5.35;2.62;;;;;;;;;;143741;595;46021;-86
2021/06/05 13:06:16;;;;;;;4.10;2.03;;;;;;;;;;143740;564;46014;-86
2021/06/05 13:08:44;;;;;;;4.93;2.62;;;;;;;;;;143742;589;46022;-86
2021/06/05 13:11:12;;;;;;;6.55;2.33;;;;;;;;;;143736;569;46012;-86
2021/06/05 13:13:59;;;;;;;8.27;2.92;;;;;;;;;;143741;582;46020;-86
2021/06/05 13:16:26;;;;;;;11.40;2.83;;;;;;;;;;143740;601;46012;-86
2021/06/05 13:18:52;;;;;;;3.00;2.15;;;;;;;;;;143740;658;45023;-86
2021/06/05 13:21:29;;;;;;;4.47;2.05;;;;;;;;;;143738;671;46012;-86
2021/06/05 13:24:20;;;;;;;4.70;2.00;;;;;;;;;;143742;636;46021;-86
2021/06/05 13:26:55;;;;;;;4.35;2.62;;;;;;;;;;143741;596;46020;-85
2021/06/05 13:30:22;;;;;;;4.05;2.90;;;;;;;;;;143742;586;46020;-87
2021/06/05 13:32:54;;;;;;;5.25;2.70;;;;;;;;;;143740;615;46012;-85
2021/06/05 13:35:43;;;;;;;6.95;2.22;;;;;;;;;;143738;580;46014;-86
2021/06/05 13:38:22;;;;;;;5.43;3.05;;;;;;;;;;143739;581;46014;-85
2021/06/05 13:40:52;;;;;;;2.62;2.12;;;;;;;;;;143739;585;46023;-86
2021/06/05 13:43:19;;;;;;;6.22;2.42;;;;;;;;;;143741;624;46012;-86
2021/06/05 13:45:46;;;;;;;4.87;2.30;;;;;;;;;;143742;564;46021;-85
2021/06/05 13:48:13;;;;;;;8.70;2.70;;;;;;;;;;143741;617;46012;-85
2021/06/05 13:50:39;;;;;;;7.75;2.65;;;;;;;;;;143739;610;46014;-84
2021/06/05 13:53:10;;;;;;;4.57;2.60;;;;;;;;;;143742;597;46012;-86
2021/06/05 13:55:47;;;;;;;4.45;2.58;;;;;;;;;;143741;607;46020;-84
2021/06/05 13:58:14;;;;;;;5.37;2.55;;;;;;;;;;143738;580;46012;-86
2021/06/05 14:00:42;;;;;;;14.50;3.28;;;;;;;;;;143740;564;46021;-85
2021/06/05 14:03:10;;;;;;;7.65;2.87;;;;;;;;;;143738;602;46012;-85
2021/06/05 14:05:37;;;;;;;8.65;2.67;;;;;;;;;;143739;566;46020;-87
2021/06/05 14:08:05;;;;;;;8.73;3.05;;;;;;;;;;143740;583;46013;-87
2021/06/05 14:10:32;;;;;;;6.68;3.00;;;;;;;;;;143741;585;46020;-87
2021/06/05 14:12:59;;;;;;;9.95;2.60;;;;;;;;;;143737;573;46014;-88
2021/06/05 14:15:37;;;;;;;12.27;2.87;;;;;;;;;;143740;619;46021;-87
2021/06/05 14:18:05;;;;;;;10.50;2.47;;;;;;;;;;143739;644;46012;-86
2021/06/05 14:20:35;;;;;;;7.45;2.50;;;;;;;;;;143741;588;46020;-87
2021/06/05 14:23:03;;;;;;;12.35;2.55;;;;;;;;;;143740;581;45921;-86
2021/06/05 14:25:30;;;;;;;8.75;2.25;;;;;;;;;;143739;609;46020;-86
2021/06/05 14:27:59;;;;;;;2.97;2.10;;;;;;;;;;143741;591;46012;-87
2021/06/05 14:30:32;;;;;;;7.12;3.25;;;;;;;;;;143741;604;46021;-87
2021/06/05 14:33:00;;;;;;;7.20;2.72;;;;;;;;;;143740;586;46012;-88
2021/06/05 14:35:27;;;;;;;4.93;2.78;;;;;;;;;;143740;618;47020;-88
2021/06/05 14:37:55;;;;;;;9.35;3.25;;;;;;;;;;143737;617;46013;-86
2021/06/05 14:40:24;;;;;;;5.95;3.05;;;;;;;;;;143741;659;46020;-87
2021/06/05 14:42:51;;;;;;;6.78;3.30;;;;;;;;;;143738;610;46012;-86
2021/06/05 14:45:21;;;;;;;7.75;2.72;;;;;;;;;;143741;588;46021;-87
2021/06/05 14:47:48;;;;;;;6.37;2.90;;;;;;;;;;143744;616;46012;-87
2021/06/05 14:50:17;;;;;;;6.10;3.33;;;;;;;;;;143737;634;46022;-87
2021/06/05 14:52:45;;;;;;;9.98;2.78;;;;;;;;;;143736;603;47013;-88
2021/06/05 14:55:15;;;;;;;8.70;2.95;;;;;;;;;;143741;613;46020;-86
2021/06/05 14:57:43;;;;;;;3.60;2.33;;;;;;;;;;143743;612;45020;-87
2021/06/05 15:00:11;;;;;;;7.93;2.67;;;;;;;;;;143739;633;46917;-87
2021/06/05 15:02:39;;;;;;;6.00;2.30;;;;;;;;;;143738;582;46012;-88
2021/06/05 15:05:09;;;;;;;6.93;2.45;;;;;;;;;;143740;596;46020;-87
2021/06/05 15:07:36;;;;;;;7.28;3.10;;;;;;;;;;143740;572;46012;-86
2021/06/05 15:10:05;;;;;;;5.95;2.60;;;;;;;;;;143740;609;46021;-86
2021/06/05 15:12:32;;;;;;;11.98;2.58;;;;;;;;;;143740;588;45020;-87
2021/06/05 15:15:00;;;;;;;5.80;2.40;;;;;;;;;;143739;576;46021;-85
2021/06/05 15:17:27;;;;;;;6.87;2.78;;;;;;;;;;143739;571;46012;-88
2021/06/05 15:19:54;;;;;;;6.55;2.70;;;;;;;;;;143742;623;46020;-85
2021/06/05 15:22:21;;;;;;;12.18;3.75;;;;;;;;;;143739;595;46013;-87
2021/06/05 15:24:48;;;;;;;7.50;2.87;;;;;;;;;;143741;656;46021;-86
2021/06/05 15:27:15;;;;;;;8.23;3.10;;;;;;;;;;143741;569;46012;-85
2021/06/05 15:29:42;;;;;;;6.40;2.60;;;;;;;;;;143740;620;46015;-87